sensor_id;sensor_type;location;lat;lon;timestamp;P1;durP1;ratioP1;P2;durP2;ratioP2
32186;SDS011;18686;53.084;8.872;2023-07-09T00:01:25;6.38;;;4.95;;
32186;SDS011;18686;53.084;8.872;2023-07-09T00:03:55;7.68;;;4.63;;
32186;SDS011;18686;53.084;8.872;2023-07-09T00:06:23;6.47;;;4.57;;
32186;SDS011;18686;53.084;8.872;2023-07-09T00:08:51;7.38;;;5.22;;
32186;SDS011;18686;53.084;8.872;2023-07-09T00:11:19;6.05;;;4.95;;
32186;SDS011;18686;53.084;8.872;2023-07-09T00:13:48;5.20;;;4.57;;
32186;SDS011;18686;53.084;8.872;2023-07-09T00:16:17;8.38;;;4.68;;
32186;SDS011;18686;53.084;8.872;2023-07-09T00:18:48;5.90;;;4.75;;
32186;SDS011;18686;53.084;8.872;2023-07-09T00:21:18;6.72;;;5.22;;
32186;SDS011;18686;53.084;8.872;2023-07-09T00:23:50;5.75;;;4.80;;
32186;SDS011;18686;53.084;8.872;2023-07-09T00:26:18;6.28;;;5.10;;
32186;SDS011;18686;53.084;8.872;2023-07-09T00:28:50;5.90;;;5.00;;
32186;SDS011;18686;53.084;8.872;2023-07-09T00:31:18;5.15;;;4.63;;
32186;SDS011;18686;53.084;8.872;2023-07-09T00:33:48;6.25;;;4.85;;
32186;SDS011;18686;53.084;8.872;2023-07-09T00:36:18;5.30;;;4.50;;
32186;SDS011;18686;53.084;8.872;2023-07-09T00:38:54;6.22;;;4.68;;
32186;SDS011;18686;53.084;8.872;2023-07-09T00:41:31;7.38;;;4.65;;
32186;SDS011;18686;53.084;8.872;2023-07-09T00:44:13;7.30;;;4.70;;
32186;SDS011;18686;53.084;8.872;2023-07-09T00:47:17;5.13;;;4.63;;
32186;SDS011;18686;53.084;8.872;2023-07-09T00:49:59;6.85;;;5.03;;
32186;SDS011;18686;53.084;8.872;2023-07-09T00:52:33;5.63;;;4.72;;
32186;SDS011;18686;53.084;8.872;2023-07-09T00:55:05;5.80;;;4.60;;
32186;SDS011;18686;53.084;8.872;2023-07-09T00:57:38;6.43;;;5.28;;
32186;SDS011;18686;53.084;8.872;2023-07-09T01:00:09;6.45;;;5.45;;
32186;SDS011;18686;53.084;8.872;2023-07-09T01:02:44;8.68;;;5.97;;
32186;SDS011;18686;53.084;8.872;2023-07-09T01:05:15;6.72;;;5.25;;
32186;SDS011;18686;53.084;8.872;2023-07-09T01:07:48;5.43;;;4.72;;
32186;SDS011;18686;53.084;8.872;2023-07-09T01:10:17;7.03;;;4.93;;
32186;SDS011;18686;53.084;8.872;2023-07-09T01:12:46;6.38;;;5.38;;
32186;SDS011;18686;53.084;8.872;2023-07-09T01:15:16;7.10;;;5.43;;
32186;SDS011;18686;53.084;8.872;2023-07-09T01:17:45;6.60;;;4.90;;
32186;SDS011;18686;53.084;8.872;2023-07-09T01:20:14;5.90;;;4.80;;
32186;SDS011;18686;53.084;8.872;2023-07-09T01:22:49;5.57;;;4.60;;
32186;SDS011;18686;53.084;8.872;2023-07-09T01:25:21;5.07;;;4.55;;
32186;SDS011;18686;53.084;8.872;2023-07-09T01:27:50;9.88;;;5.00;;
32186;SDS011;18686;53.084;8.872;2023-07-09T01:30:19;6.97;;;5.45;;
32186;SDS011;18686;53.084;8.872;2023-07-09T01:32:50;5.57;;;4.97;;
32186;SDS011;18686;53.084;8.872;2023-07-09T01:35:19;5.03;;;4.47;;
32186;SDS011;18686;53.084;8.872;2023-07-09T01:37:50;7.97;;;5.25;;
32186;SDS011;18686;53.084;8.872;2023-07-09T01:40:19;7.60;;;5.05;;
32186;SDS011;18686;53.084;8.872;2023-07-09T01:42:59;6.10;;;4.68;;
32186;SDS011;18686;53.084;8.872;2023-07-09T01:45:33;6.68;;;5.00;;
32186;SDS011;18686;53.084;8.872;2023-07-09T01:48:02;9.25;;;5.78;;
32186;SDS011;18686;53.084;8.872;2023-07-09T01:50:31;12.50;;;4.60;;
32186;SDS011;18686;53.084;8.872;2023-07-09T01:53:00;7.13;;;4.65;;
32186;SDS011;18686;53.084;8.872;2023-07-09T01:55:30;6.45;;;5.05;;
32186;SDS011;18686;53.084;8.872;2023-07-09T01:57:59;5.07;;;4.50;;
32186;SDS011;18686;53.084;8.872;2023-07-09T02:00:32;5.97;;;5.28;;
32186;SDS011;18686;53.084;8.872;2023-07-09T02:03:02;8.65;;;4.75;;
32186;SDS011;18686;53.084;8.872;2023-07-09T02:05:31;8.85;;;5.43;;
32186;SDS011;18686;53.084;8.872;2023-07-09T02:08:02;5.07;;;4.57;;
32186;SDS011;18686;53.084;8.872;2023-07-09T02:10:31;7.18;;;4.82;;
32186;SDS011;18686;53.084;8.872;2023-07-09T02:12:59;5.45;;;4.50;;
32186;SDS011;18686;53.084;8.872;2023-07-09T02:15:27;6.90;;;4.70;;
32186;SDS011;18686;53.084;8.872;2023-07-09T02:17:57;6.10;;;4.65;;
32186;SDS011;18686;53.084;8.872;2023-07-09T02:20:28;6.35;;;4.65;;
32186;SDS011;18686;53.084;8.872;2023-07-09T02:22:56;5.65;;;4.65;;
32186;SDS011;18686;53.084;8.872;2023-07-09T02:25:26;5.63;;;4.38;;
32186;SDS011;18686;53.084;8.872;2023-07-09T02:27:54;5.70;;;4.15;;
32186;SDS011;18686;53.084;8.872;2023-07-09T02:30:22;6.45;;;4.57;;
32186;SDS011;18686;53.084;8.872;2023-07-09T02:32:50;8.07;;;4.32;;
32186;SDS011;18686;53.084;8.872;2023-07-09T02:35:20;5.50;;;4.45;;
32186;SDS011;18686;53.084;8.872;2023-07-09T02:37:49;5.43;;;4.28;;
32186;SDS011;18686;53.084;8.872;2023-07-09T02:40:17;8.75;;;4.75;;
32186;SDS011;18686;53.084;8.872;2023-07-09T02:42:46;5.93;;;4.50;;
32186;SDS011;18686;53.084;8.872;2023-07-09T02:45:17;5.82;;;4.65;;
32186;SDS011;18686;53.084;8.872;2023-07-09T02:47:46;4.65;;;4.22;;
32186;SDS011;18686;53.084;8.872;2023-07-09T02:50:14;5.35;;;4.50;;
32186;SDS011;18686;53.084;8.872;2023-07-09T02:52:43;6.00;;;4.78;;
32186;SDS011;18686;53.084;8.872;2023-07-09T02:55:11;5.30;;;4.35;;
32186;SDS011;18686;53.084;8.872;2023-07-09T02:57:39;5.22;;;4.55;;
32186;SDS011;18686;53.084;8.872;2023-07-09T03:00:09;5.00;;;4.50;;
32186;SDS011;18686;53.084;8.872;2023-07-09T03:02:38;4.85;;;4.32;;
32186;SDS011;18686;53.084;8.872;2023-07-09T03:05:07;4.70;;;4.30;;
32186;SDS011;18686;53.084;8.872;2023-07-09T03:07:37;6.88;;;4.88;;
32186;SDS011;18686;53.084;8.872;2023-07-09T03:10:05;4.70;;;4.30;;
32186;SDS011;18686;53.084;8.872;2023-07-09T03:12:34;4.85;;;4.35;;
32186;SDS011;18686;53.084;8.872;2023-07-09T03:15:02;7.65;;;4.57;;
32186;SDS011;18686;53.084;8.872;2023-07-09T03:17:32;5.20;;;4.45;;
32186;SDS011;18686;53.084;8.872;2023-07-09T03:20:01;6.43;;;4.70;;
32186;SDS011;18686;53.084;8.872;2023-07-09T03:22:29;6.18;;;4.63;;
32186;SDS011;18686;53.084;8.872;2023-07-09T03:24:57;5.35;;;4.32;;
32186;SDS011;18686;53.084;8.872;2023-07-09T03:27:25;5.32;;;4.40;;
32186;SDS011;18686;53.084;8.872;2023-07-09T03:29:53;5.93;;;4.75;;
32186;SDS011;18686;53.084;8.872;2023-07-09T03:32:22;5.00;;;4.50;;
32186;SDS011;18686;53.084;8.872;2023-07-09T03:34:51;7.10;;;4.60;;
32186;SDS011;18686;53.084;8.872;2023-07-09T03:37:19;6.65;;;5.03;;
32186;SDS011;18686;53.084;8.872;2023-07-09T03:39:48;6.07;;;4.85;;
32186;SDS011;18686;53.084;8.872;2023-07-09T03:42:16;6.22;;;4.47;;
32186;SDS011;18686;53.084;8.872;2023-07-09T03:44:44;5.53;;;4.50;;
32186;SDS011;18686;53.084;8.872;2023-07-09T03:47:12;7.43;;;4.95;;
32186;SDS011;18686;53.084;8.872;2023-07-09T03:49:41;5.75;;;4.45;;
32186;SDS011;18686;53.084;8.872;2023-07-09T03:52:10;5.53;;;5.03;;
32186;SDS011;18686;53.084;8.872;2023-07-09T03:54:38;7.05;;;5.10;;
32186;SDS011;18686;53.084;8.872;2023-07-09T03:57:07;5.65;;;5.00;;
32186;SDS011;18686;53.084;8.872;2023-07-09T03:59:35;11.68;;;5.00;;
32186;SDS011;18686;53.084;8.872;2023-07-09T04:02:06;5.63;;;5.00;;
32186;SDS011;18686;53.084;8.872;2023-07-09T04:04:34;5.35;;;4.85;;
32186;SDS011;18686;53.084;8.872;2023-07-09T04:07:02;6.22;;;5.10;;
32186;SDS011;18686;53.084;8.872;2023-07-09T04:09:32;5.40;;;4.90;;
32186;SDS011;18686;53.084;8.872;2023-07-09T04:12:01;6.20;;;4.90;;
32186;SDS011;18686;53.084;8.872;2023-07-09T04:14:29;5.30;;;4.40;;
32186;SDS011;18686;53.084;8.872;2023-07-09T04:16:57;5.20;;;4.75;;
32186;SDS011;18686;53.084;8.872;2023-07-09T04:19:26;6.18;;;4.90;;
32186;SDS011;18686;53.084;8.872;2023-07-09T04:21:54;6.15;;;5.22;;
32186;SDS011;18686;53.084;8.872;2023-07-09T04:24:23;5.38;;;4.88;;
32186;SDS011;18686;53.084;8.872;2023-07-09T04:26:52;5.60;;;4.65;;
32186;SDS011;18686;53.084;8.872;2023-07-09T04:29:23;6.35;;;4.80;;
32186;SDS011;18686;53.084;8.872;2023-07-09T04:31:51;5.50;;;4.53;;
32186;SDS011;18686;53.084;8.872;2023-07-09T04:34:19;4.93;;;4.45;;
32186;SDS011;18686;53.084;8.872;2023-07-09T04:36:47;6.07;;;4.43;;
32186;SDS011;18686;53.084;8.872;2023-07-09T04:39:16;5.05;;;4.55;;
32186;SDS011;18686;53.084;8.872;2023-07-09T04:41:44;4.80;;;4.40;;
32186;SDS011;18686;53.084;8.872;2023-07-09T04:44:13;5.25;;;4.50;;
32186;SDS011;18686;53.084;8.872;2023-07-09T04:46:42;5.57;;;4.60;;
32186;SDS011;18686;53.084;8.872;2023-07-09T04:49:10;5.47;;;4.70;;
32186;SDS011;18686;53.084;8.872;2023-07-09T04:51:38;4.70;;;4.30;;
32186;SDS011;18686;53.084;8.872;2023-07-09T04:54:07;5.13;;;4.38;;
32186;SDS011;18686;53.084;8.872;2023-07-09T04:56:35;4.90;;;4.38;;
32186;SDS011;18686;53.084;8.872;2023-07-09T04:59:04;4.75;;;4.32;;
32186;SDS011;18686;53.084;8.872;2023-07-09T05:01:33;6.40;;;4.88;;
32186;SDS011;18686;53.084;8.872;2023-07-09T05:04:01;5.25;;;4.60;;
32186;SDS011;18686;53.084;8.872;2023-07-09T05:06:30;5.25;;;4.68;;
32186;SDS011;18686;53.084;8.872;2023-07-09T05:08:58;5.65;;;4.63;;
32186;SDS011;18686;53.084;8.872;2023-07-09T05:11:26;7.75;;;4.72;;
32186;SDS011;18686;53.084;8.872;2023-07-09T05:13:55;5.43;;;4.35;;
32186;SDS011;18686;53.084;8.872;2023-07-09T05:16:23;4.90;;;3.80;;
32186;SDS011;18686;53.084;8.872;2023-07-09T05:18:52;4.63;;;4.22;;
32186;SDS011;18686;53.084;8.872;2023-07-09T05:21:21;5.80;;;4.75;;
32186;SDS011;18686;53.084;8.872;2023-07-09T05:23:49;6.32;;;4.47;;
32186;SDS011;18686;53.084;8.872;2023-07-09T05:26:17;4.53;;;3.95;;
32186;SDS011;18686;53.084;8.872;2023-07-09T05:28:45;4.38;;;3.92;;
32186;SDS011;18686;53.084;8.872;2023-07-09T05:31:13;5.30;;;4.13;;
32186;SDS011;18686;53.084;8.872;2023-07-09T05:33:42;5.70;;;4.30;;
32186;SDS011;18686;53.084;8.872;2023-07-09T05:36:11;5.00;;;4.05;;
32186;SDS011;18686;53.084;8.872;2023-07-09T05:38:42;5.72;;;4.47;;
32186;SDS011;18686;53.084;8.872;2023-07-09T05:41:10;6.20;;;3.88;;
32186;SDS011;18686;53.084;8.872;2023-07-09T05:43:38;6.15;;;4.85;;
32186;SDS011;18686;53.084;8.872;2023-07-09T05:46:07;5.20;;;4.07;;
32186;SDS011;18686;53.084;8.872;2023-07-09T05:48:35;5.78;;;4.43;;
32186;SDS011;18686;53.084;8.872;2023-07-09T05:51:03;4.43;;;3.85;;
32186;SDS011;18686;53.084;8.872;2023-07-09T05:53:33;5.15;;;4.63;;
32186;SDS011;18686;53.084;8.872;2023-07-09T05:56:01;8.10;;;4.05;;
32186;SDS011;18686;53.084;8.872;2023-07-09T05:58:30;5.43;;;4.68;;
32186;SDS011;18686;53.084;8.872;2023-07-09T06:00:58;5.65;;;3.78;;
32186;SDS011;18686;53.084;8.872;2023-07-09T06:03:26;6.70;;;4.35;;
32186;SDS011;18686;53.084;8.872;2023-07-09T06:05:56;4.68;;;4.13;;
32186;SDS011;18686;53.084;8.872;2023-07-09T06:08:27;4.50;;;3.78;;
32186;SDS011;18686;53.084;8.872;2023-07-09T06:10:58;5.57;;;4.22;;
32186;SDS011;18686;53.084;8.872;2023-07-09T06:13:47;5.70;;;4.07;;
32186;SDS011;18686;53.084;8.872;2023-07-09T06:16:15;9.95;;;4.05;;
32186;SDS011;18686;53.084;8.872;2023-07-09T06:18:44;4.35;;;3.60;;
32186;SDS011;18686;53.084;8.872;2023-07-09T06:21:13;7.75;;;3.95;;
32186;SDS011;18686;53.084;8.872;2023-07-09T06:23:41;4.78;;;3.90;;
32186;SDS011;18686;53.084;8.872;2023-07-09T06:26:10;8.18;;;4.30;;
32186;SDS011;18686;53.084;8.872;2023-07-09T06:28:39;6.22;;;4.20;;
32186;SDS011;18686;53.084;8.872;2023-07-09T06:31:07;5.53;;;4.20;;
32186;SDS011;18686;53.084;8.872;2023-07-09T06:33:35;5.43;;;4.00;;
32186;SDS011;18686;53.084;8.872;2023-07-09T06:36:03;5.10;;;3.80;;
32186;SDS011;18686;53.084;8.872;2023-07-09T06:38:33;6.32;;;4.57;;
32186;SDS011;18686;53.084;8.872;2023-07-09T06:41:01;5.82;;;4.03;;
32186;SDS011;18686;53.084;8.872;2023-07-09T06:43:30;6.18;;;4.15;;
32186;SDS011;18686;53.084;8.872;2023-07-09T06:45:59;8.40;;;3.90;;
32186;SDS011;18686;53.084;8.872;2023-07-09T06:48:28;8.48;;;4.25;;
32186;SDS011;18686;53.084;8.872;2023-07-09T06:50:57;4.30;;;3.90;;
32186;SDS011;18686;53.084;8.872;2023-07-09T06:53:27;3.58;;;3.25;;
32186;SDS011;18686;53.084;8.872;2023-07-09T06:55:56;7.35;;;4.60;;
32186;SDS011;18686;53.084;8.872;2023-07-09T06:58:27;5.72;;;3.50;;
32186;SDS011;18686;53.084;8.872;2023-07-09T07:01:02;4.22;;;3.50;;
32186;SDS011;18686;53.084;8.872;2023-07-09T07:03:32;5.20;;;3.70;;
32186;SDS011;18686;53.084;8.872;2023-07-09T07:06:00;5.45;;;3.63;;
32186;SDS011;18686;53.084;8.872;2023-07-09T07:08:30;10.48;;;3.83;;
32186;SDS011;18686;53.084;8.872;2023-07-09T07:10:59;6.25;;;3.88;;
32186;SDS011;18686;53.084;8.872;2023-07-09T07:13:31;6.45;;;4.13;;
32186;SDS011;18686;53.084;8.872;2023-07-09T07:16:02;11.18;;;4.25;;
32186;SDS011;18686;53.084;8.872;2023-07-09T07:18:32;5.28;;;4.15;;
32186;SDS011;18686;53.084;8.872;2023-07-09T07:21:01;4.00;;;3.42;;
32186;SDS011;18686;53.084;8.872;2023-07-09T07:23:29;5.20;;;3.72;;
32186;SDS011;18686;53.084;8.872;2023-07-09T07:25:58;5.78;;;4.05;;
32186;SDS011;18686;53.084;8.872;2023-07-09T07:28:26;5.97;;;4.03;;
32186;SDS011;18686;53.084;8.872;2023-07-09T07:30:58;4.03;;;3.63;;
32186;SDS011;18686;53.084;8.872;2023-07-09T07:33:28;3.88;;;3.33;;
32186;SDS011;18686;53.084;8.872;2023-07-09T07:35:56;4.00;;;3.50;;
32186;SDS011;18686;53.084;8.872;2023-07-09T07:38:45;7.05;;;4.25;;
32186;SDS011;18686;53.084;8.872;2023-07-09T07:41:13;5.15;;;3.63;;
32186;SDS011;18686;53.084;8.872;2023-07-09T07:43:41;5.65;;;3.53;;
32186;SDS011;18686;53.084;8.872;2023-07-09T07:46:10;6.30;;;4.00;;
32186;SDS011;18686;53.084;8.872;2023-07-09T07:48:39;7.82;;;4.20;;
32186;SDS011;18686;53.084;8.872;2023-07-09T07:51:08;6.93;;;4.07;;
32186;SDS011;18686;53.084;8.872;2023-07-09T07:53:36;6.90;;;3.80;;
32186;SDS011;18686;53.084;8.872;2023-07-09T07:56:04;4.32;;;3.38;;
32186;SDS011;18686;53.084;8.872;2023-07-09T07:58:33;5.95;;;3.50;;
32186;SDS011;18686;53.084;8.872;2023-07-09T08:01:01;6.32;;;4.10;;
32186;SDS011;18686;53.084;8.872;2023-07-09T08:03:30;3.85;;;3.35;;
32186;SDS011;18686;53.084;8.872;2023-07-09T08:05:59;4.10;;;3.70;;
32186;SDS011;18686;53.084;8.872;2023-07-09T08:08:28;5.70;;;3.55;;
32186;SDS011;18686;53.084;8.872;2023-07-09T08:11:00;5.35;;;3.65;;
32186;SDS011;18686;53.084;8.872;2023-07-09T08:13:31;3.97;;;3.58;;
32186;SDS011;18686;53.084;8.872;2023-07-09T08:16:00;4.22;;;3.63;;
32186;SDS011;18686;53.084;8.872;2023-07-09T08:18:30;4.80;;;4.35;;
32186;SDS011;18686;53.084;8.872;2023-07-09T08:21:00;3.67;;;3.28;;
32186;SDS011;18686;53.084;8.872;2023-07-09T08:23:28;6.72;;;3.83;;
32186;SDS011;18686;53.084;8.872;2023-07-09T08:25:56;3.90;;;3.50;;
32186;SDS011;18686;53.084;8.872;2023-07-09T08:28:30;4.63;;;3.90;;
32186;SDS011;18686;53.084;8.872;2023-07-09T08:30:58;3.83;;;3.42;;
32186;SDS011;18686;53.084;8.872;2023-07-09T08:33:27;5.43;;;3.90;;
32186;SDS011;18686;53.084;8.872;2023-07-09T08:35:56;7.10;;;4.00;;
32186;SDS011;18686;53.084;8.872;2023-07-09T08:38:25;4.28;;;3.50;;
32186;SDS011;18686;53.084;8.872;2023-07-09T08:40:55;3.92;;;3.30;;
32186;SDS011;18686;53.084;8.872;2023-07-09T08:43:31;5.15;;;3.45;;
32186;SDS011;18686;53.084;8.872;2023-07-09T08:46:03;8.50;;;3.53;;
32186;SDS011;18686;53.084;8.872;2023-07-09T08:48:38;5.32;;;3.92;;
32186;SDS011;18686;53.084;8.872;2023-07-09T08:51:12;4.45;;;3.50;;
32186;SDS011;18686;53.084;8.872;2023-07-09T08:53:45;9.25;;;3.55;;
32186;SDS011;18686;53.084;8.872;2023-07-09T08:56:17;3.97;;;3.45;;
32186;SDS011;18686;53.084;8.872;2023-07-09T08:58:46;6.18;;;3.83;;
32186;SDS011;18686;53.084;8.872;2023-07-09T09:01:18;8.45;;;3.58;;
32186;SDS011;18686;53.084;8.872;2023-07-09T09:03:48;3.95;;;3.53;;
32186;SDS011;18686;53.084;8.872;2023-07-09T09:06:20;5.65;;;3.53;;
32186;SDS011;18686;53.084;8.872;2023-07-09T09:08:58;5.40;;;3.67;;
32186;SDS011;18686;53.084;8.872;2023-07-09T09:11:33;5.68;;;3.78;;
32186;SDS011;18686;53.084;8.872;2023-07-09T09:14:23;3.83;;;3.40;;
32186;SDS011;18686;53.084;8.872;2023-07-09T09:16:55;6.30;;;3.70;;
32186;SDS011;18686;53.084;8.872;2023-07-09T09:19:25;3.88;;;3.25;;
32186;SDS011;18686;53.084;8.872;2023-07-09T09:21:57;5.10;;;3.50;;
32186;SDS011;18686;53.084;8.872;2023-07-09T09:24:35;7.90;;;4.07;;
32186;SDS011;18686;53.084;8.872;2023-07-09T09:27:07;3.95;;;3.50;;
32186;SDS011;18686;53.084;8.872;2023-07-09T09:29:36;6.13;;;3.58;;
32186;SDS011;18686;53.084;8.872;2023-07-09T09:34:45;4.13;;;3.33;;
32186;SDS011;18686;53.084;8.872;2023-07-09T09:37:15;6.35;;;3.35;;
32186;SDS011;18686;53.084;8.872;2023-07-09T09:39:54;3.53;;;3.22;;
32186;SDS011;18686;53.084;8.872;2023-07-09T09:42:40;3.42;;;2.70;;
32186;SDS011;18686;53.084;8.872;2023-07-09T09:45:11;4.60;;;3.28;;
32186;SDS011;18686;53.084;8.872;2023-07-09T09:47:42;3.60;;;3.17;;
32186;SDS011;18686;53.084;8.872;2023-07-09T09:50:13;3.63;;;3.33;;
32186;SDS011;18686;53.084;8.872;2023-07-09T09:52:42;3.58;;;3.10;;
32186;SDS011;18686;53.084;8.872;2023-07-09T09:55:16;4.45;;;3.20;;
32186;SDS011;18686;53.084;8.872;2023-07-09T09:57:47;3.42;;;3.10;;
32186;SDS011;18686;53.084;8.872;2023-07-09T10:00:17;6.50;;;3.40;;
32186;SDS011;18686;53.084;8.872;2023-07-09T10:02:46;3.80;;;3.40;;
32186;SDS011;18686;53.084;8.872;2023-07-09T10:05:15;6.97;;;3.00;;
32186;SDS011;18686;53.084;8.872;2023-07-09T10:07:45;5.05;;;2.65;;
32186;SDS011;18686;53.084;8.872;2023-07-09T10:10:23;3.15;;;2.95;;
32186;SDS011;18686;53.084;8.872;2023-07-09T10:12:56;6.40;;;3.30;;
32186;SDS011;18686;53.084;8.872;2023-07-09T10:15:31;2.92;;;2.72;;
32186;SDS011;18686;53.084;8.872;2023-07-09T10:18:09;4.68;;;2.90;;
32186;SDS011;18686;53.084;8.872;2023-07-09T10:20:50;4.32;;;3.58;;
32186;SDS011;18686;53.084;8.872;2023-07-09T10:23:28;3.30;;;3.00;;
32186;SDS011;18686;53.084;8.872;2023-07-09T10:26:02;3.47;;;2.90;;
32186;SDS011;18686;53.084;8.872;2023-07-09T10:31:34;3.72;;;2.97;;
32186;SDS011;18686;53.084;8.872;2023-07-09T10:34:16;2.80;;;2.60;;
32186;SDS011;18686;53.084;8.872;2023-07-09T10:36:58;3.20;;;2.70;;
32186;SDS011;18686;53.084;8.872;2023-07-09T10:39:36;6.38;;;3.33;;
32186;SDS011;18686;53.084;8.872;2023-07-09T10:42:09;4.70;;;2.97;;
32186;SDS011;18686;53.084;8.872;2023-07-09T10:44:46;4.45;;;3.10;;
32186;SDS011;18686;53.084;8.872;2023-07-09T10:47:23;3.08;;;2.72;;
32186;SDS011;18686;53.084;8.872;2023-07-09T10:49:56;3.75;;;2.90;;
32186;SDS011;18686;53.084;8.872;2023-07-09T10:52:27;2.85;;;2.65;;
32186;SDS011;18686;53.084;8.872;2023-07-09T10:54:59;2.90;;;2.70;;
32186;SDS011;18686;53.084;8.872;2023-07-09T10:57:34;3.33;;;2.50;;
32186;SDS011;18686;53.084;8.872;2023-07-09T11:00:11;5.72;;;3.10;;
32186;SDS011;18686;53.084;8.872;2023-07-09T11:02:42;3.95;;;2.85;;
32186;SDS011;18686;53.084;8.872;2023-07-09T11:05:12;3.08;;;2.80;;
32186;SDS011;18686;53.084;8.872;2023-07-09T11:07:41;3.90;;;2.88;;
32186;SDS011;18686;53.084;8.872;2023-07-09T11:10:16;3.75;;;2.75;;
32186;SDS011;18686;53.084;8.872;2023-07-09T11:12:52;4.60;;;2.90;;
32186;SDS011;18686;53.084;8.872;2023-07-09T11:15:27;2.55;;;2.35;;
32186;SDS011;18686;53.084;8.872;2023-07-09T11:18:00;2.78;;;2.58;;
32186;SDS011;18686;53.084;8.872;2023-07-09T11:20:33;3.55;;;2.90;;
32186;SDS011;18686;53.084;8.872;2023-07-09T11:23:03;3.75;;;3.20;;
32186;SDS011;18686;53.084;8.872;2023-07-09T11:25:41;2.90;;;2.70;;
32186;SDS011;18686;53.084;8.872;2023-07-09T11:28:11;2.80;;;2.50;;
32186;SDS011;18686;53.084;8.872;2023-07-09T11:30:46;3.38;;;2.40;;
32186;SDS011;18686;53.084;8.872;2023-07-09T11:33:17;3.53;;;2.80;;
32186;SDS011;18686;53.084;8.872;2023-07-09T11:35:51;4.18;;;3.00;;
32186;SDS011;18686;53.084;8.872;2023-07-09T11:38:22;5.95;;;3.38;;
32186;SDS011;18686;53.084;8.872;2023-07-09T11:40:52;5.05;;;2.90;;
32186;SDS011;18686;53.084;8.872;2023-07-09T11:43:31;3.85;;;3.55;;
32186;SDS011;18686;53.084;8.872;2023-07-09T11:46:05;3.33;;;3.03;;
32186;SDS011;18686;53.084;8.872;2023-07-09T11:48:40;3.63;;;3.33;;
32186;SDS011;18686;53.084;8.872;2023-07-09T11:51:10;3.72;;;3.30;;
32186;SDS011;18686;53.084;8.872;2023-07-09T11:53:44;6.13;;;2.97;;
32186;SDS011;18686;53.084;8.872;2023-07-09T11:56:17;4.35;;;3.15;;
32186;SDS011;18686;53.084;8.872;2023-07-09T11:58:51;5.90;;;3.08;;
32186;SDS011;18686;53.084;8.872;2023-07-09T12:01:22;2.80;;;2.50;;
32186;SDS011;18686;53.084;8.872;2023-07-09T12:06:24;4.70;;;2.70;;
32186;SDS011;18686;53.084;8.872;2023-07-09T12:08:55;4.45;;;2.83;;
32186;SDS011;18686;53.084;8.872;2023-07-09T12:11:25;3.67;;;2.85;;
32186;SDS011;18686;53.084;8.872;2023-07-09T12:14:01;4.47;;;3.50;;
32186;SDS011;18686;53.084;8.872;2023-07-09T12:16:31;3.92;;;3.20;;
32186;SDS011;18686;53.084;8.872;2023-07-09T12:19:01;3.75;;;2.90;;
32186;SDS011;18686;53.084;8.872;2023-07-09T12:21:30;4.90;;;2.75;;
32186;SDS011;18686;53.084;8.872;2023-07-09T12:24:01;3.17;;;2.88;;
32186;SDS011;18686;53.084;8.872;2023-07-09T12:26:30;3.03;;;2.70;;
32186;SDS011;18686;53.084;8.872;2023-07-09T12:28:59;3.15;;;2.92;;
32186;SDS011;18686;53.084;8.872;2023-07-09T12:31:30;2.70;;;2.50;;
32186;SDS011;18686;53.084;8.872;2023-07-09T12:33:58;4.25;;;2.97;;
32186;SDS011;18686;53.084;8.872;2023-07-09T12:36:27;4.10;;;2.90;;
32186;SDS011;18686;53.084;8.872;2023-07-09T12:38:56;3.80;;;2.97;;
32186;SDS011;18686;53.084;8.872;2023-07-09T12:41:35;3.13;;;2.92;;
32186;SDS011;18686;53.084;8.872;2023-07-09T12:44:08;5.20;;;2.83;;
32186;SDS011;18686;53.084;8.872;2023-07-09T12:46:44;4.97;;;3.10;;
32186;SDS011;18686;53.084;8.872;2023-07-09T12:49:18;3.67;;;3.30;;
32186;SDS011;18686;53.084;8.872;2023-07-09T12:51:49;6.45;;;3.13;;
32186;SDS011;18686;53.084;8.872;2023-07-09T12:54:18;5.78;;;2.92;;
32186;SDS011;18686;53.084;8.872;2023-07-09T12:56:50;4.38;;;2.75;;
32186;SDS011;18686;53.084;8.872;2023-07-09T12:59:20;3.10;;;2.90;;
32186;SDS011;18686;53.084;8.872;2023-07-09T13:01:55;3.57;;;3.27;;
32186;SDS011;18686;53.084;8.872;2023-07-09T13:04:27;3.42;;;3.13;;
32186;SDS011;18686;53.084;8.872;2023-07-09T13:06:57;3.10;;;2.85;;
32186;SDS011;18686;53.084;8.872;2023-07-09T13:09:26;3.17;;;2.88;;
32186;SDS011;18686;53.084;8.872;2023-07-09T13:11:55;3.10;;;2.90;;
32186;SDS011;18686;53.084;8.872;2023-07-09T13:14:25;3.42;;;3.13;;
32186;SDS011;18686;53.084;8.872;2023-07-09T13:17:03;3.35;;;3.05;;
32186;SDS011;18686;53.084;8.872;2023-07-09T13:19:32;4.50;;;3.35;;
32186;SDS011;18686;53.084;8.872;2023-07-09T13:22:01;3.97;;;3.17;;
32186;SDS011;18686;53.084;8.872;2023-07-09T13:24:29;3.40;;;3.10;;
32186;SDS011;18686;53.084;8.872;2023-07-09T13:26:59;3.22;;;2.92;;
32186;SDS011;18686;53.084;8.872;2023-07-09T13:29:28;2.83;;;2.60;;
32186;SDS011;18686;53.084;8.872;2023-07-09T13:31:58;3.80;;;3.10;;
32186;SDS011;18686;53.084;8.872;2023-07-09T13:34:29;3.30;;;3.00;;
32186;SDS011;18686;53.084;8.872;2023-07-09T13:36:59;7.03;;;3.38;;
32186;SDS011;18686;53.084;8.872;2023-07-09T13:39:28;2.97;;;2.78;;
32186;SDS011;18686;53.084;8.872;2023-07-09T13:41:56;3.25;;;3.00;;
32186;SDS011;18686;53.084;8.872;2023-07-09T13:44:25;3.40;;;3.10;;
32186;SDS011;18686;53.084;8.872;2023-07-09T13:46:55;5.20;;;3.83;;
32186;SDS011;18686;53.084;8.872;2023-07-09T13:49:25;6.10;;;3.50;;
32186;SDS011;18686;53.084;8.872;2023-07-09T13:51:56;4.65;;;3.33;;
32186;SDS011;18686;53.084;8.872;2023-07-09T13:54:26;4.47;;;3.25;;
32186;SDS011;18686;53.084;8.872;2023-07-09T13:56:58;4.10;;;2.95;;
32186;SDS011;18686;53.084;8.872;2023-07-09T13:59:26;4.97;;;3.58;;
32186;SDS011;18686;53.084;8.872;2023-07-09T14:01:57;7.20;;;3.38;;
32186;SDS011;18686;53.084;8.872;2023-07-09T14:04:26;3.88;;;3.10;;
32186;SDS011;18686;53.084;8.872;2023-07-09T14:06:56;4.28;;;3.15;;
32186;SDS011;18686;53.084;8.872;2023-07-09T14:09:25;3.60;;;3.03;;
32186;SDS011;18686;53.084;8.872;2023-07-09T14:11:53;3.90;;;3.50;;
32186;SDS011;18686;53.084;8.872;2023-07-09T14:14:22;3.20;;;2.90;;
32186;SDS011;18686;53.084;8.872;2023-07-09T14:16:51;8.90;;;3.28;;
32186;SDS011;18686;53.084;8.872;2023-07-09T14:19:20;5.30;;;3.15;;
32186;SDS011;18686;53.084;8.872;2023-07-09T14:21:50;3.50;;;3.20;;
32186;SDS011;18686;53.084;8.872;2023-07-09T14:24:22;7.90;;;3.30;;
32186;SDS011;18686;53.084;8.872;2023-07-09T14:26:53;4.43;;;3.33;;
32186;SDS011;18686;53.084;8.872;2023-07-09T14:29:23;6.70;;;3.40;;
32186;SDS011;18686;53.084;8.872;2023-07-09T14:31:52;4.13;;;3.00;;
32186;SDS011;18686;53.084;8.872;2023-07-09T14:34:21;5.50;;;3.55;;
32186;SDS011;18686;53.084;8.872;2023-07-09T14:36:53;4.47;;;3.65;;
32186;SDS011;18686;53.084;8.872;2023-07-09T14:39:25;5.35;;;3.28;;
32186;SDS011;18686;53.084;8.872;2023-07-09T14:41:54;4.20;;;3.80;;
32186;SDS011;18686;53.084;8.872;2023-07-09T14:44:23;5.80;;;3.83;;
32186;SDS011;18686;53.084;8.872;2023-07-09T14:46:53;5.40;;;4.10;;
32186;SDS011;18686;53.084;8.872;2023-07-09T14:49:22;8.15;;;3.92;;
32186;SDS011;18686;53.084;8.872;2023-07-09T14:51:51;7.30;;;4.35;;
32186;SDS011;18686;53.084;8.872;2023-07-09T14:54:21;5.65;;;4.38;;
32186;SDS011;18686;53.084;8.872;2023-07-09T14:56:55;8.30;;;4.68;;
32186;SDS011;18686;53.084;8.872;2023-07-09T14:59:24;8.77;;;4.53;;
32186;SDS011;18686;53.084;8.872;2023-07-09T15:01:53;6.88;;;4.15;;
32186;SDS011;18686;53.084;8.872;2023-07-09T15:04:28;6.60;;;4.70;;
32186;SDS011;18686;53.084;8.872;2023-07-09T15:06:59;4.38;;;3.88;;
32186;SDS011;18686;53.084;8.872;2023-07-09T15:09:28;5.25;;;4.05;;
32186;SDS011;18686;53.084;8.872;2023-07-09T15:11:58;5.68;;;4.80;;
32186;SDS011;18686;53.084;8.872;2023-07-09T15:14:27;7.75;;;4.57;;
32186;SDS011;18686;53.084;8.872;2023-07-09T15:16:56;7.32;;;4.80;;